Home   Weather   France   Rennes   Past weeks
Flag for France

Past Weather in Rennes, Bretagne, France — Yesterday and Last 2 Weeks

Currently: 41 °F. Scattered clouds. (Weather station: Rennes Airport, France). See more current weather

Past Weather in Rennes — Graph

°F

Rennes Temperature Yesterday

Maximum temperature yesterday: 55 °F (at 3:00 pm)
Minimum temperature yesterday: 43 °F (at 11:30 pm)
Average temperature yesterday: 47 °F

High & Low Weather Summary for the Past Weeks

 TemperatureHumidityPressure
High61 °F (Nov 15, 2:30 pm)100% (Nov 14, 8:00 am)30.36 "Hg (Nov 14, 8:00 am)
Low36 °F (Nov 19, 4:30 am)51% (Nov 22, 4:00 pm)29.09 "Hg (Nov 16, 5:00 pm)
Average50 °F87%29.77 "Hg
* Reported Nov 14 8:00 am — Nov 29 8:30 am, Rennes. Weather by CustomWeather, © 2022

Note: Actual official high and low records may vary slightly from our data, if they occured in-between our weather recording intervals... More about our weather records

Rennes Weather History for the Previous 24 Hours

Scroll right to see more
 ConditionsComfort  
Time TempWeatherWind HumidityBarometerVisibility
8:30 am
Tue, Nov 29
39 °FLight fog.3 mph100%30.09 "Hg1 mi
8:00 am41 °FFog.2 mph100%30.09 "Hg1 mi
7:00 am41 °FPassing clouds.1 mph100%30.07 "Hg4 mi
6:30 am41 °FPassing clouds.3 mph100%30.07 "Hg4 mi
6:00 am41 °FPassing clouds.2 mph100%30.07 "HgN/A
5:30 am43 °FMostly cloudy.5 mph100%30.07 "HgN/A
5:00 am41 °FPassing clouds.2 mph100%30.04 "HgN/A
4:30 am43 °FMostly cloudy.2 mph93%30.04 "HgN/A
4:00 am43 °FMostly cloudy.5 mph100%30.04 "HgN/A
3:30 am41 °FPartly cloudy.5 mph100%30.04 "HgN/A
3:00 am41 °FClear.6 mph100%30.04 "HgN/A
2:30 am41 °FClear.5 mph100%30.04 "HgN/A
2:00 am41 °FClear.6 mph100%30.04 "HgN/A
12:30 am43 °FClear.3 mph93%30.01 "HgN/A
12:00 am43 °FClear.6 mph93%30.01 "HgN/A
11:30 pm
Mon, Nov 28
43 °FClear.6 mph93%30.01 "HgN/A
11:00 pm45 °FClear.5 mph87%30.01 "HgN/A
10:30 pm45 °FClear.7 mph93%30.01 "HgN/A
10:00 pm45 °FClear.7 mph87%30.01 "HgN/A
9:30 pm45 °FClear.7 mph87%30.01 "HgN/A
9:00 pm46 °FClear.8 mph87%30.01 "HgN/A
8:30 pm46 °FClear.9 mph87%29.98 "HgN/A
8:00 pm46 °FPassing clouds.9 mph87%29.98 "HgN/A
7:30 pm46 °FPassing clouds.9 mph87%29.98 "HgN/A
7:00 pm46 °FPassing clouds.6 mph87%29.98 "HgN/A
6:30 pm46 °FClear.7 mph82%29.98 "HgN/A
6:00 pm46 °FClear.7 mph87%29.95 "HgN/A
5:30 pm48 °FClear.7 mph82%29.95 "HgN/A
5:00 pm48 °FPassing clouds.6 mph87%29.95 "HgN/A
4:30 pm50 °FScattered clouds.7 mph82%29.95 "HgN/A
4:00 pm50 °FBroken clouds.8 mph82%29.92 "HgN/A
3:30 pm50 °FPartly sunny.10 mph82%29.92 "HgN/A
3:00 pm55 °FPartly sunny.10 mph67%29.92 "HgN/A
2:30 pm54 °FBroken clouds.10 mph72%29.92 "HgN/A
2:00 pm52 °FPartly sunny.14 mph77%29.92 "HgN/A
1:30 pm52 °FPartly sunny.10 mph82%29.89 "HgN/A
1:00 pm52 °FPassing clouds.9 mph82%29.89 "HgN/A
12:30 pm52 °FScattered clouds.8 mph82%29.92 "HgN/A
11:30 am48 °FLight rain. Broken clouds.8 mph87%29.92 "HgN/A
11:00 am50 °FCool.7 mph82%29.89 "HgN/A
10:30 am48 °FPassing clouds.6 mph94%29.89 "HgN/A
Weather by CustomWeather, © 2022

See weather overview